Littleport, Iowa
Current Conditions -  °F | °C
As of 4:55 PM on Friday 28 Nov 2014 (Local Time) from KPDC Reporting Station
Clear Clear  
Wind Chill: 23°   Ceiling: Unl
Heat Index: 28°   Visibility: 10mi
Dew Point: 21°   Wind: 5mph
Humidity: 73%   Direction: 90°E
Pressure: 29.88"   Gusts: NA
Location:  42.75°N, 91.37°W
Report Text: KPDC 282255Z AUTO 09004KT 10SM CLR M02/M06 A2988 RMK AO2 T10201063
Loading
Personal Weather Stations






























Interactive Weather Map New forecast layout! Learn more

10-Day Weather Forecast

Advertisements
Track Severe Weather on mobile